sensor_id;sensor_type;location;lat;lon;timestamp;temperature;humidity
796;DHT22;381;48.770;9.188;2024-03-02T00:01:21;8.70;99.90
796;DHT22;381;48.770;9.188;2024-03-02T00:06:25;8.70;99.90
796;DHT22;381;48.770;9.188;2024-03-02T00:11:27;8.70;99.90
796;DHT22;381;48.770;9.188;2024-03-02T00:16:30;8.80;99.90
796;DHT22;381;48.770;9.188;2024-03-02T00:21:34;8.80;99.90
796;DHT22;381;48.770;9.188;2024-03-02T00:26:37;8.80;99.90
796;DHT22;381;48.770;9.188;2024-03-02T00:31:40;8.80;99.90
796;DHT22;381;48.770;9.188;2024-03-02T00:36:44;8.80;99.90
796;DHT22;381;48.770;9.188;2024-03-02T00:41:47;8.70;99.90
796;DHT22;381;48.770;9.188;2024-03-02T00:46:49;8.70;99.90
796;DHT22;381;48.770;9.188;2024-03-02T00:51:54;8.60;99.90
796;DHT22;381;48.770;9.188;2024-03-02T00:56:56;8.50;99.90
796;DHT22;381;48.770;9.188;2024-03-02T01:02:00;8.40;99.90
796;DHT22;381;48.770;9.188;2024-03-02T01:07:04;8.40;99.90
796;DHT22;381;48.770;9.188;2024-03-02T01:12:07;8.40;99.90
796;DHT22;381;48.770;9.188;2024-03-02T01:17:09;8.40;99.90
796;DHT22;381;48.770;9.188;2024-03-02T01:22:13;8.40;99.90
796;DHT22;381;48.770;9.188;2024-03-02T01:27:15;8.40;99.90
796;DHT22;381;48.770;9.188;2024-03-02T01:32:17;8.50;99.90
796;DHT22;381;48.770;9.188;2024-03-02T01:37:21;8.50;99.90
796;DHT22;381;48.770;9.188;2024-03-02T01:42:24;8.50;99.90
796;DHT22;381;48.770;9.188;2024-03-02T01:47:26;8.50;99.90
796;DHT22;381;48.770;9.188;2024-03-02T01:52:30;8.40;99.90
796;DHT22;381;48.770;9.188;2024-03-02T01:57:32;8.40;99.90
796;DHT22;381;48.770;9.188;2024-03-02T02:02:35;8.30;99.90
796;DHT22;381;48.770;9.188;2024-03-02T02:07:39;8.20;99.90
796;DHT22;381;48.770;9.188;2024-03-02T02:12:42;8.10;99.90
796;DHT22;381;48.770;9.188;2024-03-02T02:17:45;7.90;99.90
796;DHT22;381;48.770;9.188;2024-03-02T02:22:59;7.80;99.90
796;DHT22;381;48.770;9.188;2024-03-02T02:28:01;7.70;99.90
796;DHT22;381;48.770;9.188;2024-03-02T02:33:04;7.60;99.90
796;DHT22;381;48.770;9.188;2024-03-02T02:38:08;7.50;99.90
796;DHT22;381;48.770;9.188;2024-03-02T02:43:10;7.40;99.90
796;DHT22;381;48.770;9.188;2024-03-02T02:48:12;7.40;99.90
796;DHT22;381;48.770;9.188;2024-03-02T02:53:16;7.30;99.90
796;DHT22;381;48.770;9.188;2024-03-02T02:58:18;7.20;99.90
796;DHT22;381;48.770;9.188;2024-03-02T03:03:21;7.10;99.90
796;DHT22;381;48.770;9.188;2024-03-02T03:08:24;7.10;99.90
796;DHT22;381;48.770;9.188;2024-03-02T03:13:27;7.00;99.90
796;DHT22;381;48.770;9.188;2024-03-02T03:18:29;7.00;99.90
796;DHT22;381;48.770;9.188;2024-03-02T03:23:33;7.00;99.90
796;DHT22;381;48.770;9.188;2024-03-02T03:28:35;6.90;99.90
796;DHT22;381;48.770;9.188;2024-03-02T03:33:37;6.80;99.90
796;DHT22;381;48.770;9.188;2024-03-02T03:38:41;6.80;99.90
796;DHT22;381;48.770;9.188;2024-03-02T03:43:43;6.80;99.90
796;DHT22;381;48.770;9.188;2024-03-02T03:48:46;6.70;99.90
796;DHT22;381;48.770;9.188;2024-03-02T03:53:49;6.70;99.90
796;DHT22;381;48.770;9.188;2024-03-02T03:58:52;6.70;99.90
796;DHT22;381;48.770;9.188;2024-03-02T04:03:54;6.60;99.90
796;DHT22;381;48.770;9.188;2024-03-02T04:08:58;6.60;99.90
796;DHT22;381;48.770;9.188;2024-03-02T04:14:00;6.60;99.90
796;DHT22;381;48.770;9.188;2024-03-02T04:19:02;6.60;99.90
796;DHT22;381;48.770;9.188;2024-03-02T04:24:06;6.50;99.90
796;DHT22;381;48.770;9.188;2024-03-02T04:29:09;6.50;99.90
796;DHT22;381;48.770;9.188;2024-03-02T04:34:11;6.50;99.90
796;DHT22;381;48.770;9.188;2024-03-02T04:39:15;6.40;99.90
796;DHT22;381;48.770;9.188;2024-03-02T04:44:17;6.40;99.90
796;DHT22;381;48.770;9.188;2024-03-02T04:49:20;6.40;99.90
796;DHT22;381;48.770;9.188;2024-03-02T04:54:24;6.40;99.90
796;DHT22;381;48.770;9.188;2024-03-02T04:59:26;6.40;99.90
796;DHT22;381;48.770;9.188;2024-03-02T05:04:28;6.50;99.90
796;DHT22;381;48.770;9.188;2024-03-02T05:09:33;6.40;99.90
796;DHT22;381;48.770;9.188;2024-03-02T05:14:36;6.40;99.90
796;DHT22;381;48.770;9.188;2024-03-02T05:19:38;6.40;99.90
796;DHT22;381;48.770;9.188;2024-03-02T05:24:42;6.40;99.90
796;DHT22;381;48.770;9.188;2024-03-02T05:29:44;6.40;99.90
796;DHT22;381;48.770;9.188;2024-03-02T05:34:46;6.40;99.90
796;DHT22;381;48.770;9.188;2024-03-02T05:39:50;6.30;99.90
796;DHT22;381;48.770;9.188;2024-03-02T05:44:53;6.30;99.90
796;DHT22;381;48.770;9.188;2024-03-02T05:49:55;6.30;99.90
796;DHT22;381;48.770;9.188;2024-03-02T05:54:59;6.30;99.90
796;DHT22;381;48.770;9.188;2024-03-02T06:00:01;6.20;99.90
796;DHT22;381;48.770;9.188;2024-03-02T06:05:13;6.20;99.90
796;DHT22;381;48.770;9.188;2024-03-02T06:10:18;6.20;99.90
796;DHT22;381;48.770;9.188;2024-03-02T06:15:21;6.20;99.90
796;DHT22;381;48.770;9.188;2024-03-02T06:20:24;6.20;99.90
796;DHT22;381;48.770;9.188;2024-03-02T06:25:29;6.20;99.90
796;DHT22;381;48.770;9.188;2024-03-02T06:30:31;6.20;99.90
796;DHT22;381;48.770;9.188;2024-03-02T06:35:33;6.20;99.90
796;DHT22;381;48.770;9.188;2024-03-02T06:40:37;6.20;99.90
796;DHT22;381;48.770;9.188;2024-03-02T06:45:40;6.30;99.90
796;DHT22;381;48.770;9.188;2024-03-02T06:50:43;6.50;99.90
796;DHT22;381;48.770;9.188;2024-03-02T06:55:47;6.60;99.90
796;DHT22;381;48.770;9.188;2024-03-02T07:00:51;6.70;99.90
796;DHT22;381;48.770;9.188;2024-03-02T07:05:53;6.80;99.90
796;DHT22;381;48.770;9.188;2024-03-02T07:10:59;7.00;99.90
796;DHT22;381;48.770;9.188;2024-03-02T07:16:01;7.10;99.90
796;DHT22;381;48.770;9.188;2024-03-02T07:21:22;7.30;99.90
796;DHT22;381;48.770;9.188;2024-03-02T07:26:26;7.60;99.90
796;DHT22;381;48.770;9.188;2024-03-02T07:31:28;7.80;99.90
796;DHT22;381;48.770;9.188;2024-03-02T07:36:31;8.00;99.90
796;DHT22;381;48.770;9.188;2024-03-02T07:41:34;8.10;99.90
796;DHT22;381;48.770;9.188;2024-03-02T07:46:37;8.30;99.90
796;DHT22;381;48.770;9.188;2024-03-02T07:51:39;8.40;99.90
796;DHT22;381;48.770;9.188;2024-03-02T07:56:43;8.60;99.90
796;DHT22;381;48.770;9.188;2024-03-02T08:01:48;8.70;99.90
796;DHT22;381;48.770;9.188;2024-03-02T08:06:51;8.80;99.90
796;DHT22;381;48.770;9.188;2024-03-02T08:11:54;8.90;99.90
796;DHT22;381;48.770;9.188;2024-03-02T08:16:58;9.00;99.90
796;DHT22;381;48.770;9.188;2024-03-02T08:22:00;9.00;99.90
796;DHT22;381;48.770;9.188;2024-03-02T08:27:04;9.10;99.90
796;DHT22;381;48.770;9.188;2024-03-02T08:32:06;9.10;99.90
796;DHT22;381;48.770;9.188;2024-03-02T08:37:09;9.20;99.90
796;DHT22;381;48.770;9.188;2024-03-02T08:42:13;9.20;99.90
796;DHT22;381;48.770;9.188;2024-03-02T08:47:15;9.20;99.90
796;DHT22;381;48.770;9.188;2024-03-02T08:52:18;9.40;99.90
796;DHT22;381;48.770;9.188;2024-03-02T08:57:21;9.50;99.90
796;DHT22;381;48.770;9.188;2024-03-02T09:02:26;9.60;99.90
796;DHT22;381;48.770;9.188;2024-03-02T09:07:29;9.80;99.90
796;DHT22;381;48.770;9.188;2024-03-02T09:12:33;9.90;99.90
796;DHT22;381;48.770;9.188;2024-03-02T09:17:35;10.10;99.80
796;DHT22;381;48.770;9.188;2024-03-02T09:22:38;10.30;99.20
796;DHT22;381;48.770;9.188;2024-03-02T09:27:41;10.40;98.90
796;DHT22;381;48.770;9.188;2024-03-02T09:32:44;10.50;98.30
796;DHT22;381;48.770;9.188;2024-03-02T09:37:46;10.70;98.30
796;DHT22;381;48.770;9.188;2024-03-02T09:42:50;10.90;97.30
796;DHT22;381;48.770;9.188;2024-03-02T09:47:55;11.20;97.20
796;DHT22;381;48.770;9.188;2024-03-02T09:52:57;11.30;97.50
796;DHT22;381;48.770;9.188;2024-03-02T09:58:01;11.50;97.70
796;DHT22;381;48.770;9.188;2024-03-02T10:03:05;11.70;97.70
796;DHT22;381;48.770;9.188;2024-03-02T10:08:07;11.90;97.50
796;DHT22;381;48.770;9.188;2024-03-02T10:13:12;12.00;97.00
796;DHT22;381;48.770;9.188;2024-03-02T10:18:26;12.10;95.90
796;DHT22;381;48.770;9.188;2024-03-02T10:23:29;12.10;95.10
796;DHT22;381;48.770;9.188;2024-03-02T10:28:33;12.10;95.00
796;DHT22;381;48.770;9.188;2024-03-02T10:33:35;12.00;95.10
796;DHT22;381;48.770;9.188;2024-03-02T10:38:40;12.00;95.20
796;DHT22;381;48.770;9.188;2024-03-02T10:43:45;12.00;94.70
796;DHT22;381;48.770;9.188;2024-03-02T10:48:48;12.10;94.90
796;DHT22;381;48.770;9.188;2024-03-02T10:53:51;12.00;95.40
796;DHT22;381;48.770;9.188;2024-03-02T10:59:01;12.00;95.50
796;DHT22;381;48.770;9.188;2024-03-02T11:04:07;12.00;95.10
796;DHT22;381;48.770;9.188;2024-03-02T11:09:10;12.10;95.40
796;DHT22;381;48.770;9.188;2024-03-02T11:14:17;12.20;94.80
796;DHT22;381;48.770;9.188;2024-03-02T11:19:22;12.30;95.10
796;DHT22;381;48.770;9.188;2024-03-02T11:24:29;12.30;95.40
796;DHT22;381;48.770;9.188;2024-03-02T11:34:46;12.30;93.60
796;DHT22;381;48.770;9.188;2024-03-02T11:39:50;12.50;93.30
796;DHT22;381;48.770;9.188;2024-03-02T11:44:56;12.60;92.90
796;DHT22;381;48.770;9.188;2024-03-02T11:50:00;12.70;92.60
796;DHT22;381;48.770;9.188;2024-03-02T11:55:03;12.80;92.00
796;DHT22;381;48.770;9.188;2024-03-02T12:00:17;12.90;91.00
796;DHT22;381;48.770;9.188;2024-03-02T12:05:21;13.00;90.80
796;DHT22;381;48.770;9.188;2024-03-02T12:10:23;13.20;90.40
796;DHT22;381;48.770;9.188;2024-03-02T12:15:26;13.30;90.80
796;DHT22;381;48.770;9.188;2024-03-02T12:20:31;13.30;90.80
796;DHT22;381;48.770;9.188;2024-03-02T12:25:33;13.40;91.20
796;DHT22;381;48.770;9.188;2024-03-02T12:30:36;13.40;90.60
796;DHT22;381;48.770;9.188;2024-03-02T12:35:40;13.60;90.30
796;DHT22;381;48.770;9.188;2024-03-02T12:40:43;13.70;90.10
796;DHT22;381;48.770;9.188;2024-03-02T12:45:45;13.70;89.60
796;DHT22;381;48.770;9.188;2024-03-02T12:50:50;13.70;90.40
796;DHT22;381;48.770;9.188;2024-03-02T12:55:52;13.60;90.60
796;DHT22;381;48.770;9.188;2024-03-02T13:01:06;13.50;90.00
796;DHT22;381;48.770;9.188;2024-03-02T13:06:11;13.60;90.00
796;DHT22;381;48.770;9.188;2024-03-02T13:11:13;13.70;90.00
796;DHT22;381;48.770;9.188;2024-03-02T13:16:16;13.70;90.60
796;DHT22;381;48.770;9.188;2024-03-02T13:21:21;13.50;91.50
796;DHT22;381;48.770;9.188;2024-03-02T13:26:23;13.50;90.30
796;DHT22;381;48.770;9.188;2024-03-02T13:31:25;13.60;89.20
796;DHT22;381;48.770;9.188;2024-03-02T13:36:29;13.70;89.80
796;DHT22;381;48.770;9.188;2024-03-02T13:41:31;13.70;90.60
796;DHT22;381;48.770;9.188;2024-03-02T13:46:34;13.80;88.20
796;DHT22;381;48.770;9.188;2024-03-02T13:51:38;13.80;88.90
796;DHT22;381;48.770;9.188;2024-03-02T13:56:40;13.80;90.00
796;DHT22;381;48.770;9.188;2024-03-02T14:01:42;13.60;90.60
796;DHT22;381;48.770;9.188;2024-03-02T14:06:46;13.50;91.00
796;DHT22;381;48.770;9.188;2024-03-02T14:11:50;13.30;91.70
796;DHT22;381;48.770;9.188;2024-03-02T14:16:53;13.30;91.00
796;DHT22;381;48.770;9.188;2024-03-02T14:21:58;13.30;90.20
796;DHT22;381;48.770;9.188;2024-03-02T14:27:00;13.40;90.30
796;DHT22;381;48.770;9.188;2024-03-02T14:32:06;13.30;90.70
796;DHT22;381;48.770;9.188;2024-03-02T14:37:10;13.20;91.50
796;DHT22;381;48.770;9.188;2024-03-02T14:42:12;13.30;89.90
796;DHT22;381;48.770;9.188;2024-03-02T14:47:14;13.30;89.50
796;DHT22;381;48.770;9.188;2024-03-02T14:52:18;13.50;87.40
796;DHT22;381;48.770;9.188;2024-03-02T14:57:20;13.70;85.20
796;DHT22;381;48.770;9.188;2024-03-02T15:02:23;13.90;83.10
796;DHT22;381;48.770;9.188;2024-03-02T15:07:27;14.10;82.90
796;DHT22;381;48.770;9.188;2024-03-02T15:12:29;14.30;82.80
796;DHT22;381;48.770;9.188;2024-03-02T15:17:32;14.30;81.90
796;DHT22;381;48.770;9.188;2024-03-02T15:22:36;14.50;79.80
796;DHT22;381;48.770;9.188;2024-03-02T15:27:38;14.50;79.40
796;DHT22;381;48.770;9.188;2024-03-02T15:32:41;14.50;81.10
796;DHT22;381;48.770;9.188;2024-03-02T15:37:44;14.20;83.60
796;DHT22;381;48.770;9.188;2024-03-02T15:42:47;14.20;80.40
796;DHT22;381;48.770;9.188;2024-03-02T15:47:49;14.10;79.80
796;DHT22;381;48.770;9.188;2024-03-02T15:52:53;14.10;79.20
796;DHT22;381;48.770;9.188;2024-03-02T15:57:57;14.10;78.30
796;DHT22;381;48.770;9.188;2024-03-02T16:02:59;14.20;79.40
796;DHT22;381;48.770;9.188;2024-03-02T16:08:03;14.20;80.00
796;DHT22;381;48.770;9.188;2024-03-02T16:13:06;14.20;80.30
796;DHT22;381;48.770;9.188;2024-03-02T16:18:09;14.20;81.20
796;DHT22;381;48.770;9.188;2024-03-02T16:23:12;14.20;81.50
796;DHT22;381;48.770;9.188;2024-03-02T16:28:15;14.10;82.10
796;DHT22;381;48.770;9.188;2024-03-02T16:33:17;13.90;84.10
796;DHT22;381;48.770;9.188;2024-03-02T16:38:21;13.80;84.70
796;DHT22;381;48.770;9.188;2024-03-02T16:43:23;13.70;86.30
796;DHT22;381;48.770;9.188;2024-03-02T16:48:25;13.60;88.00
796;DHT22;381;48.770;9.188;2024-03-02T16:53:29;13.50;88.90
796;DHT22;381;48.770;9.188;2024-03-02T16:58:31;13.40;89.90
796;DHT22;381;48.770;9.188;2024-03-02T17:03:34;13.30;90.30
796;DHT22;381;48.770;9.188;2024-03-02T17:08:37;13.20;90.70
796;DHT22;381;48.770;9.188;2024-03-02T17:13:40;13.10;91.10
796;DHT22;381;48.770;9.188;2024-03-02T17:18:42;13.00;91.60
796;DHT22;381;48.770;9.188;2024-03-02T17:23:46;12.80;91.90
796;DHT22;381;48.770;9.188;2024-03-02T17:28:48;12.70;92.30
796;DHT22;381;48.770;9.188;2024-03-02T17:33:52;12.60;92.50
796;DHT22;381;48.770;9.188;2024-03-02T17:38:56;12.50;92.90
796;DHT22;381;48.770;9.188;2024-03-02T17:43:58;12.40;93.10
796;DHT22;381;48.770;9.188;2024-03-02T17:49:01;12.40;93.40
796;DHT22;381;48.770;9.188;2024-03-02T17:54:04;12.40;94.20
796;DHT22;381;48.770;9.188;2024-03-02T17:59:07;12.40;94.60
796;DHT22;381;48.770;9.188;2024-03-02T18:04:09;12.50;95.10
796;DHT22;381;48.770;9.188;2024-03-02T18:09:13;12.60;95.20
796;DHT22;381;48.770;9.188;2024-03-02T18:14:15;12.60;95.60
796;DHT22;381;48.770;9.188;2024-03-02T18:19:18;12.70;95.80
796;DHT22;381;48.770;9.188;2024-03-02T18:24:22;12.80;95.90
796;DHT22;381;48.770;9.188;2024-03-02T18:29:27;12.80;95.90
796;DHT22;381;48.770;9.188;2024-03-02T18:34:30;12.80;96.10
796;DHT22;381;48.770;9.188;2024-03-02T18:39:34;12.70;96.20
796;DHT22;381;48.770;9.188;2024-03-02T18:44:36;12.70;96.40
796;DHT22;381;48.770;9.188;2024-03-02T18:49:42;12.70;96.40
796;DHT22;381;48.770;9.188;2024-03-02T18:54:47;12.70;96.50
796;DHT22;381;48.770;9.188;2024-03-02T18:59:49;12.70;96.50
796;DHT22;381;48.770;9.188;2024-03-02T19:04:51;12.70;96.50
796;DHT22;381;48.770;9.188;2024-03-02T19:09:55;12.70;96.80
796;DHT22;381;48.770;9.188;2024-03-02T19:14:58;12.70;96.70
796;DHT22;381;48.770;9.188;2024-03-02T19:20:01;12.70;96.60
796;DHT22;381;48.770;9.188;2024-03-02T19:25:08;12.70;96.70
796;DHT22;381;48.770;9.188;2024-03-02T19:30:11;12.60;96.70
796;DHT22;381;48.770;9.188;2024-03-02T19:35:14;12.50;96.80
796;DHT22;381;48.770;9.188;2024-03-02T19:40:18;12.50;97.00
796;DHT22;381;48.770;9.188;2024-03-02T19:45:20;12.40;96.90
796;DHT22;381;48.770;9.188;2024-03-02T19:50:22;12.40;97.00
796;DHT22;381;48.770;9.188;2024-03-02T19:55:26;12.30;96.90
796;DHT22;381;48.770;9.188;2024-03-02T20:00:31;12.20;97.10
796;DHT22;381;48.770;9.188;2024-03-02T20:05:33;12.10;97.20
796;DHT22;381;48.770;9.188;2024-03-02T20:10:37;12.00;97.30
796;DHT22;381;48.770;9.188;2024-03-02T20:15:39;11.90;97.40
796;DHT22;381;48.770;9.188;2024-03-02T20:20:42;11.80;97.50
796;DHT22;381;48.770;9.188;2024-03-02T20:25:46;11.70;97.70
796;DHT22;381;48.770;9.188;2024-03-02T20:30:48;11.60;97.80
796;DHT22;381;48.770;9.188;2024-03-02T20:35:50;11.50;97.90
796;DHT22;381;48.770;9.188;2024-03-02T20:40:54;11.40;98.00
796;DHT22;381;48.770;9.188;2024-03-02T20:45:57;11.40;98.20
796;DHT22;381;48.770;9.188;2024-03-02T20:51:05;11.30;98.20
796;DHT22;381;48.770;9.188;2024-03-02T20:56:09;11.20;98.30
796;DHT22;381;48.770;9.188;2024-03-02T21:01:12;11.20;98.50
796;DHT22;381;48.770;9.188;2024-03-02T21:06:14;11.10;98.50
796;DHT22;381;48.770;9.188;2024-03-02T21:11:18;11.00;98.50
796;DHT22;381;48.770;9.188;2024-03-02T21:16:23;10.90;98.40
796;DHT22;381;48.770;9.188;2024-03-02T21:21:25;10.80;98.40
796;DHT22;381;48.770;9.188;2024-03-02T21:26:30;10.70;98.40
796;DHT22;381;48.770;9.188;2024-03-02T21:31:32;10.60;98.70
796;DHT22;381;48.770;9.188;2024-03-02T21:36:36;10.60;99.00
796;DHT22;381;48.770;9.188;2024-03-02T21:41:40;10.70;99.30
796;DHT22;381;48.770;9.188;2024-03-02T21:46:42;10.70;99.60
796;DHT22;381;48.770;9.188;2024-03-02T21:51:46;10.80;99.40
796;DHT22;381;48.770;9.188;2024-03-02T21:56:50;10.80;99.40
796;DHT22;381;48.770;9.188;2024-03-02T22:01:52;10.80;99.40
796;DHT22;381;48.770;9.188;2024-03-02T22:06:54;10.80;99.40
796;DHT22;381;48.770;9.188;2024-03-02T22:11:58;10.90;99.50
796;DHT22;381;48.770;9.188;2024-03-02T22:17:02;10.90;99.60
796;DHT22;381;48.770;9.188;2024-03-02T22:22:05;10.90;99.80
796;DHT22;381;48.770;9.188;2024-03-02T22:27:08;10.90;99.90
796;DHT22;381;48.770;9.188;2024-03-02T22:32:11;11.00;99.90
796;DHT22;381;48.770;9.188;2024-03-02T22:37:13;11.00;99.90
796;DHT22;381;48.770;9.188;2024-03-02T22:42:17;10.90;99.90
796;DHT22;381;48.770;9.188;2024-03-02T22:47:19;10.90;99.90
796;DHT22;381;48.770;9.188;2024-03-02T22:52:22;10.80;99.90
796;DHT22;381;48.770;9.188;2024-03-02T22:57:25;10.80;99.90
796;DHT22;381;48.770;9.188;2024-03-02T23:02:28;10.70;99.90
796;DHT22;381;48.770;9.188;2024-03-02T23:07:30;10.70;99.90
796;DHT22;381;48.770;9.188;2024-03-02T23:12:34;10.70;99.90
796;DHT22;381;48.770;9.188;2024-03-02T23:17:36;10.60;99.90
796;DHT22;381;48.770;9.188;2024-03-02T23:22:38;10.60;99.90
796;DHT22;381;48.770;9.188;2024-03-02T23:27:44;10.40;99.40
796;DHT22;381;48.770;9.188;2024-03-02T23:32:47;10.30;99.50
796;DHT22;381;48.770;9.188;2024-03-02T23:37:50;10.10;99.50
796;DHT22;381;48.770;9.188;2024-03-02T23:42:55;10.10;99.70
796;DHT22;381;48.770;9.188;2024-03-02T23:47:58;9.90;99.90
796;DHT22;381;48.770;9.188;2024-03-02T23:53:00;9.80;99.90
796;DHT22;381;48.770;9.188;2024-03-02T23:58:04;9.80;99.90
